Terminal Aerodrome Forecast
Issued by NWS

Home | Current Version | Previous Version | Text Only | Print | Product List | Glossary On
Versions: 1 2 3 4 5 6 7 8 9 10 11 12 13 14 15 16 17 18 19 20 21 22 23 24 25 26 27
000
FTUS43 KLOT 210524
TAFGYY
TAF
KGYY 210524Z 2106/2206 13007KT 3SM BR SCT005 OVC015
      TEMPO 2106/2110 1SM -DZ BR OVC005
     FM211000 16009KT 3SM BR BKN005 OVC015
     FM211300 17011KT 5SM BR SCT007 BKN015
     FM211600 19012G18KT P6SM FEW025
     FM220000 18006KT 6SM BR FEW010 SCT120
     FM220300 VRB03KT 3SM BR SCT004 BKN008=

USA.gov is the U.S. government's official web portal to all federal, state and local government web resources and services.